メインページ
METAR-TAF:

METAR-TAF

空港 :

バトルクリーク, ミシガン州, アメリカ合衆国

緯度: 42-18-45N, 経度: 085-14-27W, 海抜: 290m

現時点の気象観測

当レポートは44分前の05:53(UTC)に作成
南/南東の風 8kt
気温 11°C
湿度 43%
気圧 1017 hPa
視程: 16.1km
高度9500ftの曇り

METAR: KBTL 040553Z AUTO 15008KT 10SM OVC095 11/M01 A3002 RMK AO2 SLP165 T01061011 10167 20094 56006

時間: 02:37 (06:37 UTC)

予報

当レポートは57分前の05:40(UTC)に作成
予報は04日の 06時(UTC)から 05日の 06時(UTC)まで有効
南東の風 7kt
視程: 10km
高度8000ftの曇り
04日の 1500時(UTC)から
西の風 7kt
視程: 3.2km
高度2500ftの曇り
にわか雨
04日の 1900時(UTC)から
西/北西の風 8kt
視程: 8.0km
高度900ftの曇り
04日の 2200時(UTC)から
北西の風 9kt
視程: 8.0km
高度1900ftの曇り
04日の 2300時(UTC)から
北西の風 8kt
視程: 10km
高度1900ftの曇り
05日の 0100時(UTC)から
北西の風 10kt
視程: 10km
高度5000ftの千切れ雲あり

TAF: KBTL 040540Z 0406/0506 14007KT P6SM OVC080 FM041500 26007KT 2SM SHRA OVC025 FM041900 29008KT 5SM BR OVC009 FM042200 31009KT 5SM BR OVC019 FM042300 32008KT P6SM OVC019 FM050100 32010KT P6SM BKN050

4,000以上の空港の気象観測と天気予報(METAR報とTAF報)

利用可能な観測所は地図上に黄色い丸と赤い丸で示す。

丸の上にカーソルを重ねると観測所名を参照できる。

次にクリックすると気象観測と天気予報を参照できる。

マップの切り替え:黒色「×」印の緑ボタンをクリックして拡大、「-」印の緑ボタンをクリックして縮小、緑色の三角印をクリックして隣りの地図に切り替え


METAR-TAF: